createdAt,value
2023-01-07T00:01:30.508Z,2.30
2023-01-07T00:03:58.929Z,2.70
2023-01-07T00:06:35.813Z,2.38
2023-01-07T00:09:04.778Z,2.20
2023-01-07T00:11:37.030Z,2.15
2023-01-07T00:14:06.403Z,2.00
2023-01-07T00:16:34.817Z,1.98
2023-01-07T00:19:03.727Z,1.95
2023-01-07T00:21:31.209Z,1.80
2023-01-07T00:24:01.341Z,1.80
2023-01-07T00:26:31.561Z,2.00
2023-01-07T00:28:58.660Z,1.88
2023-01-07T00:31:31.794Z,1.80
2023-01-07T00:33:58.882Z,2.00
2023-01-07T00:36:28.115Z,1.90
2023-01-07T00:39:16.494Z,2.10
2023-01-07T00:42:02.696Z,1.90
2023-01-07T00:44:30.366Z,2.50
2023-01-07T00:46:58.501Z,2.03
2023-01-07T00:49:25.952Z,2.00
2023-01-07T00:51:53.378Z,1.85
2023-01-07T00:54:20.254Z,2.13
2023-01-07T00:56:47.097Z,2.15
2023-01-07T00:59:14.177Z,2.13
2023-01-07T01:01:41.311Z,1.92
2023-01-07T01:04:08.350Z,2.05
2023-01-07T01:06:35.556Z,1.70
2023-01-07T01:09:02.958Z,1.63
2023-01-07T01:11:30.099Z,2.10
2023-01-07T01:13:57.033Z,1.70
2023-01-07T01:16:24.114Z,1.88
2023-01-07T01:18:51.030Z,1.75
2023-01-07T01:21:19.306Z,2.05
2023-01-07T01:23:46.319Z,1.70
2023-01-07T01:26:16.567Z,1.83
2023-01-07T01:28:44.900Z,2.50
2023-01-07T01:31:12.735Z,1.85
2023-01-07T01:33:39.770Z,1.83
2023-01-07T01:36:10.245Z,1.60
2023-01-07T01:38:37.679Z,1.80
2023-01-07T01:41:05.438Z,1.90
2023-01-07T01:43:39.258Z,2.05
2023-01-07T01:46:35.961Z,1.67
2023-01-07T01:49:16.303Z,2.08
2023-01-07T01:51:47.848Z,2.00
2023-01-07T01:54:18.903Z,2.03
2023-01-07T01:56:49.914Z,2.22
2023-01-07T01:59:24.169Z,2.10
2023-01-07T02:01:51.296Z,2.17
2023-01-07T02:04:22.095Z,2.10
2023-01-07T02:07:07.220Z,2.20
2023-01-07T02:09:34.241Z,2.00
2023-01-07T02:12:06.924Z,2.05
2023-01-07T02:14:58.836Z,2.10
2023-01-07T02:17:37.681Z,2.38
2023-01-07T02:20:19.413Z,1.90
2023-01-07T02:23:04.931Z,1.67
2023-01-07T02:25:55.139Z,2.00
2023-01-07T02:28:34.228Z,2.30
2023-01-07T02:31:19.972Z,1.70
2023-01-07T02:34:23.237Z,1.95
2023-01-07T02:36:52.843Z,2.03
2023-01-07T02:39:44.223Z,2.00
2023-01-07T02:42:25.888Z,1.67
2023-01-07T02:45:16.196Z,1.92
2023-01-07T02:48:03.148Z,1.90
2023-01-07T02:52:57.009Z,1.90
2023-01-07T02:56:08.610Z,1.83
2023-01-07T02:58:54.014Z,2.00
2023-01-07T03:01:29.596Z,1.88
2023-01-07T03:03:56.384Z,1.70
2023-01-07T03:06:42.000Z,2.00
2023-01-07T03:09:15.823Z,1.83
2023-01-07T03:12:05.563Z,2.05
2023-01-07T03:14:42.463Z,1.90
2023-01-07T03:17:14.124Z,1.70
2023-01-07T03:19:46.025Z,1.80
2023-01-07T03:22:15.300Z,1.90
2023-01-07T03:24:44.069Z,1.80
2023-01-07T03:27:11.171Z,1.65
2023-01-07T03:29:38.144Z,1.90
2023-01-07T03:32:07.677Z,1.77
2023-01-07T03:34:35.243Z,1.70
2023-01-07T03:37:06.337Z,1.88
2023-01-07T03:39:34.702Z,1.67
2023-01-07T03:42:27.737Z,1.52
2023-01-07T03:44:55.088Z,1.65
2023-01-07T06:20:04.278Z,2.08
2023-01-07T06:22:31.214Z,2.08
2023-01-07T06:24:58.056Z,2.05
2023-01-07T06:27:25.104Z,2.10
2023-01-07T06:29:51.951Z,2.30
2023-01-07T06:32:18.760Z,2.33
2023-01-07T06:34:45.709Z,2.40
2023-01-07T06:37:14.949Z,2.25
2023-01-07T06:39:41.831Z,2.58
2023-01-07T06:42:08.623Z,2.05
2023-01-07T06:44:36.178Z,2.10
2023-01-07T06:47:03.513Z,2.15
2023-01-07T06:49:30.782Z,2.08
2023-01-07T06:51:57.692Z,1.95
2023-01-07T06:54:24.735Z,1.90
2023-01-07T06:56:51.649Z,1.80
2023-01-07T06:59:18.472Z,1.98
2023-01-07T07:01:46.651Z,1.90
2023-01-07T07:04:13.804Z,1.90
2023-01-07T07:06:40.739Z,2.00
2023-01-07T07:09:07.523Z,1.90
2023-01-07T07:11:34.527Z,1.88
2023-01-07T07:14:01.769Z,2.00
2023-01-07T07:16:29.764Z,2.47
2023-01-07T07:18:57.997Z,2.10
2023-01-07T07:21:25.012Z,2.40
2023-01-07T07:23:51.920Z,2.25
2023-01-07T07:26:18.976Z,2.10
2023-01-07T07:28:45.775Z,2.58
2023-01-07T07:31:12.713Z,2.78
2023-01-07T07:33:39.580Z,2.50
2023-01-07T07:36:06.883Z,2.22
2023-01-07T07:38:33.652Z,2.75
2023-01-07T07:41:01.427Z,3.03
2023-01-07T07:43:28.329Z,2.78
2023-01-07T07:45:55.215Z,2.70
2023-01-07T07:48:22.161Z,2.40
2023-01-07T07:50:51.798Z,2.78
2023-01-07T07:53:19.620Z,2.80
2023-01-07T07:55:46.891Z,2.63
2023-01-07T07:58:14.145Z,2.78
2023-01-07T08:00:41.099Z,3.05
2023-01-07T08:03:08.277Z,2.35
2023-01-07T08:05:35.104Z,2.60
2023-01-07T08:08:02.197Z,2.60
2023-01-07T08:10:29.519Z,2.30
2023-01-07T08:12:56.409Z,2.45
2023-01-07T08:15:23.374Z,2.53
2023-01-07T08:17:58.220Z,2.53
2023-01-07T08:20:25.193Z,2.50
2023-01-07T08:22:51.976Z,2.22
2023-01-07T08:25:19.395Z,2.40
2023-01-07T08:27:46.303Z,2.58
2023-01-07T08:30:13.331Z,2.55
2023-01-07T08:32:40.221Z,2.50
2023-01-07T08:35:07.787Z,2.40
2023-01-07T08:37:34.959Z,2.70
2023-01-07T08:40:05.783Z,3.20
2023-01-07T08:42:32.849Z,3.20
2023-01-07T08:44:59.781Z,3.13
2023-01-07T08:47:28.082Z,2.92
2023-01-07T08:49:55.552Z,3.10
2023-01-07T08:52:23.360Z,3.00
2023-01-07T08:54:50.630Z,2.80
2023-01-07T08:57:18.658Z,3.20
2023-01-07T08:59:45.435Z,3.20
2023-01-07T09:02:17.551Z,3.40
2023-01-07T09:04:45.014Z,3.10
2023-01-07T09:07:12.421Z,3.40
2023-01-07T09:09:39.393Z,3.20
2023-01-07T09:12:07.898Z,3.30
2023-01-07T09:14:35.699Z,3.50
2023-01-07T09:17:02.479Z,3.58
2023-01-07T09:19:29.370Z,3.53
2023-01-07T09:21:56.687Z,3.67
2023-01-07T09:24:23.566Z,3.50
2023-01-07T09:26:50.449Z,3.53
2023-01-07T09:29:17.419Z,3.95
2023-01-07T09:31:48.523Z,4.10
2023-01-07T09:34:15.380Z,3.90
2023-01-07T09:36:42.326Z,3.88
2023-01-07T09:39:13.931Z,3.95
2023-01-07T09:42:02.782Z,4.13
2023-01-07T09:45:19.429Z,4.00
2023-01-07T09:47:57.346Z,4.70
2023-01-07T09:50:48.287Z,4.53
2023-01-07T09:53:37.551Z,4.30
2023-01-07T09:56:22.302Z,4.18
2023-01-07T09:58:50.060Z,4.15
2023-01-07T10:01:35.368Z,4.07
2023-01-07T10:04:23.323Z,3.90
2023-01-07T10:07:10.326Z,4.07
2023-01-07T10:12:35.115Z,3.92
2023-01-07T10:15:15.784Z,3.83
2023-01-07T10:18:08.985Z,3.47
2023-01-07T10:24:32.560Z,3.35
2023-01-07T10:27:04.513Z,3.20
2023-01-07T10:29:43.567Z,3.05
2023-01-07T10:32:16.160Z,2.75
2023-01-07T10:34:53.966Z,2.40
2023-01-07T10:37:42.331Z,2.45
2023-01-07T10:40:42.359Z,2.20
2023-01-07T10:43:31.677Z,2.10
2023-01-07T10:46:17.162Z,2.13
2023-01-07T10:49:05.879Z,2.28
2023-01-07T10:52:02.307Z,2.15
2023-01-07T10:54:32.200Z,2.30
2023-01-07T10:57:06.687Z,2.40
2023-01-07T10:59:33.684Z,1.83
2023-01-07T11:02:01.315Z,1.88
2023-01-07T11:04:28.403Z,1.73
2023-01-07T11:07:07.248Z,1.50
2023-01-07T11:09:39.936Z,1.80
2023-01-07T11:12:32.303Z,1.40
2023-01-07T11:15:00.889Z,1.60
2023-01-07T11:17:36.175Z,1.38
2023-01-07T11:20:04.164Z,1.40
2023-01-07T11:26:55.320Z,1.38
2023-01-07T11:29:26.123Z,1.38
2023-01-07T11:32:16.156Z,1.23
2023-01-07T11:34:56.956Z,1.20
2023-01-07T11:37:38.483Z,1.35
2023-01-07T11:40:14.934Z,1.25
2023-01-07T11:42:50.695Z,1.33
2023-01-07T11:45:24.693Z,1.30
2023-01-07T11:48:06.341Z,1.20
2023-01-07T11:50:54.678Z,1.48
2023-01-07T11:53:38.034Z,1.17
2023-01-07T11:56:11.997Z,1.30
2023-01-07T11:58:40.629Z,1.35
2023-01-07T12:01:10.537Z,1.30
2023-01-07T12:03:40.804Z,1.40
2023-01-07T12:06:09.295Z,1.83
2023-01-07T12:08:36.160Z,1.73
2023-01-07T12:11:09.200Z,1.77
2023-01-07T12:13:39.529Z,1.80
2023-01-07T12:16:08.613Z,1.58
2023-01-07T12:18:42.628Z,1.77
2023-01-07T12:21:24.792Z,1.85
2023-01-07T12:24:08.566Z,2.08
2023-01-07T12:26:52.427Z,1.85
2023-01-07T12:29:28.991Z,1.85
2023-01-07T12:34:41.219Z,2.00
2023-01-07T12:37:23.264Z,1.98
2023-01-07T12:39:56.894Z,1.90
2023-01-07T12:42:30.224Z,2.03
2023-01-07T12:45:04.144Z,2.17
2023-01-07T12:47:40.300Z,2.20
2023-01-07T12:50:21.590Z,2.30
2023-01-07T12:53:02.709Z,2.20
2023-01-07T12:55:36.879Z,3.28
2023-01-07T12:58:22.820Z,2.42
2023-01-07T13:00:53.364Z,3.08
2023-01-07T13:03:29.442Z,2.33
2023-01-07T13:06:14.221Z,2.40
2023-01-07T13:08:51.704Z,3.35
2023-01-07T13:11:46.786Z,4.10
2023-01-07T13:14:27.333Z,3.20
2023-01-07T13:17:20.716Z,2.90
2023-01-07T13:19:47.577Z,2.90
2023-01-07T13:22:47.650Z,2.30
2023-01-07T13:25:35.794Z,2.10
2023-01-07T13:28:40.027Z,1.95
2023-01-07T13:31:16.358Z,2.15
2023-01-07T13:33:59.495Z,2.08
2023-01-07T13:36:35.296Z,1.80
2023-01-07T13:39:10.799Z,1.77
2023-01-07T13:42:05.747Z,1.95
2023-01-07T13:44:52.770Z,2.30
2023-01-07T13:49:57.395Z,2.10
2023-01-07T13:54:56.199Z,2.28
2023-01-07T13:57:32.306Z,2.15
2023-01-07T14:00:02.094Z,2.30
2023-01-07T14:02:49.917Z,2.50
2023-01-07T14:05:19.607Z,2.83
2023-01-07T14:07:49.135Z,2.42
2023-01-07T14:10:27.289Z,2.47
2023-01-07T14:13:35.487Z,2.70
2023-01-07T14:16:09.804Z,2.83
2023-01-07T14:18:45.477Z,2.40
2023-01-07T14:21:28.498Z,2.70
2023-01-07T14:24:21.512Z,2.38
2023-01-07T14:26:57.770Z,2.40
2023-01-07T14:29:48.123Z,2.80
2023-01-07T14:32:24.006Z,2.65
2023-01-07T14:35:21.992Z,2.60
2023-01-07T14:37:49.598Z,2.75
2023-01-07T14:40:34.338Z,3.30
2023-01-07T14:43:03.143Z,3.70
2023-01-07T15:27:13.501Z,2.65
2023-01-07T15:29:49.213Z,2.53
2023-01-07T15:32:16.013Z,2.60
2023-01-07T15:34:43.961Z,2.72
2023-01-07T15:37:15.485Z,2.90
2023-01-07T15:39:54.520Z,2.90
2023-01-07T15:42:23.999Z,2.40
2023-01-07T15:44:58.849Z,2.92
2023-01-07T15:47:31.708Z,3.10
2023-01-07T15:50:22.240Z,3.03
2023-01-07T15:53:00.738Z,2.88
2023-01-07T15:55:33.407Z,2.95
2023-01-07T15:58:23.492Z,2.65
2023-01-07T16:00:57.883Z,2.83
2023-01-07T16:03:25.387Z,3.35
2023-01-07T16:05:53.292Z,2.80
2023-01-07T16:08:27.142Z,3.08
2023-01-07T16:10:58.295Z,3.30
2023-01-07T16:13:25.239Z,3.40
2023-01-07T16:15:57.847Z,2.95
2023-01-07T16:18:25.946Z,2.90
2023-01-07T16:21:04.770Z,2.80
2023-01-07T16:23:39.734Z,2.97
2023-01-07T16:26:14.417Z,2.83
2023-01-07T16:28:57.897Z,2.95
2023-01-07T16:31:27.942Z,3.58
2023-01-07T16:33:58.378Z,3.88
2023-01-07T16:36:41.370Z,3.25
2023-01-07T16:39:19.682Z,3.20
2023-01-07T16:41:47.233Z,3.00
2023-01-07T16:45:01.011Z,3.30
2023-01-07T16:47:31.111Z,3.80
2023-01-07T16:49:59.940Z,3.35
2023-01-07T16:52:33.330Z,3.20
2023-01-07T16:55:00.579Z,3.58
2023-01-07T16:57:44.660Z,3.58
2023-01-07T17:00:20.695Z,4.10
2023-01-07T17:02:56.042Z,3.80
2023-01-07T17:08:08.384Z,4.50
2023-01-07T17:10:36.610Z,4.40
2023-01-07T17:13:07.417Z,3.97
2023-01-07T17:15:36.434Z,4.70
2023-01-07T17:18:12.357Z,4.22
2023-01-07T17:20:43.323Z,4.78
2023-01-07T17:23:25.631Z,5.50
2023-01-07T17:26:04.844Z,5.40
2023-01-07T17:28:36.346Z,6.20
2023-01-07T17:31:04.104Z,5.75
2023-01-07T17:33:31.725Z,6.20
2023-01-07T17:35:58.785Z,5.72
2023-01-07T17:38:26.021Z,5.80
2023-01-07T17:40:54.655Z,6.10
2023-01-07T17:43:33.633Z,5.95
2023-01-07T17:46:06.495Z,6.80
2023-01-07T17:48:34.916Z,5.75
2023-01-07T17:51:04.676Z,5.60
2023-01-07T17:53:45.937Z,5.40
2023-01-07T17:56:13.037Z,5.05
2023-01-07T17:58:49.649Z,5.18
2023-01-07T18:03:49.070Z,5.07
2023-01-07T18:06:25.258Z,5.07
2023-01-07T18:08:53.506Z,5.18
2023-01-07T18:11:42.579Z,5.32
2023-01-07T18:14:15.629Z,5.20
2023-01-07T18:16:42.935Z,5.25
2023-01-07T18:19:14.164Z,5.50
2023-01-07T18:21:41.507Z,5.20
2023-01-07T18:24:11.233Z,5.32
2023-01-07T18:26:38.425Z,5.70
2023-01-07T18:29:05.631Z,5.75
2023-01-07T18:31:32.771Z,6.72
2023-01-07T18:34:00.012Z,7.30
2023-01-07T18:36:27.090Z,7.72
2023-01-07T18:38:54.622Z,7.28
2023-01-07T18:41:21.582Z,8.15
2023-01-07T18:43:48.816Z,8.23
2023-01-07T18:46:17.577Z,7.78
2023-01-07T18:48:52.888Z,7.53
2023-01-07T18:51:19.888Z,8.82
2023-01-07T18:53:46.953Z,7.90
2023-01-07T18:56:21.598Z,7.13
2023-01-07T18:58:53.107Z,7.57
2023-01-07T19:01:20.807Z,7.82
2023-01-07T19:03:48.320Z,7.22
2023-01-07T19:06:15.524Z,7.32
2023-01-07T19:08:42.668Z,7.15
2023-01-07T19:11:14.103Z,6.63
2023-01-07T19:13:41.830Z,6.50
2023-01-07T19:16:10.968Z,7.20
2023-01-07T19:18:38.662Z,6.65
2023-01-07T19:21:07.961Z,6.82
2023-01-07T19:23:35.041Z,7.30
2023-01-07T19:26:06.904Z,6.53
2023-01-07T19:28:34.214Z,6.20
2023-01-07T19:31:05.385Z,6.68
2023-01-07T19:33:33.047Z,6.38
2023-01-07T19:36:03.469Z,6.60
2023-01-07T19:38:30.797Z,5.60
2023-01-07T19:40:57.716Z,5.88
2023-01-07T19:43:24.893Z,5.60
2023-01-07T19:45:56.663Z,5.70
2023-01-07T19:48:24.269Z,6.20
2023-01-07T19:50:59.070Z,5.70
2023-01-07T19:53:26.331Z,5.45
2023-01-07T19:55:54.529Z,5.68
2023-01-07T19:58:21.872Z,5.80
2023-01-07T20:00:49.022Z,5.40
2023-01-07T20:03:15.970Z,5.60
2023-01-07T20:05:43.092Z,5.80
2023-01-07T20:08:09.963Z,6.03
2023-01-07T20:10:36.958Z,6.13
2023-01-07T20:13:06.643Z,6.13
2023-01-07T20:15:33.839Z,6.15
2023-01-07T20:18:00.709Z,5.68
2023-01-07T20:20:27.619Z,5.47
2023-01-07T20:22:54.812Z,6.03
2023-01-07T20:25:21.815Z,5.72
2023-01-07T20:27:48.698Z,5.95
2023-01-07T20:30:15.812Z,6.30
2023-01-07T20:32:42.865Z,6.05
2023-01-07T20:35:10.043Z,5.95
2023-01-07T20:37:36.982Z,5.43
2023-01-07T20:40:04.418Z,5.53
2023-01-07T20:42:32.249Z,5.40
2023-01-07T20:45:00.376Z,5.53
2023-01-07T20:47:27.634Z,5.55
2023-01-07T20:49:54.575Z,5.68
2023-01-07T20:52:21.444Z,5.63
2023-01-07T20:54:48.970Z,5.68
2023-01-07T20:57:16.007Z,5.70
2023-01-07T20:59:42.908Z,5.93
2023-01-07T21:02:16.667Z,5.90
2023-01-07T21:04:43.952Z,6.28
2023-01-07T21:07:10.829Z,6.47
2023-01-07T21:09:38.028Z,6.40
2023-01-07T21:12:04.977Z,8.23
2023-01-07T21:14:32.326Z,6.40
2023-01-07T21:16:59.486Z,6.55
2023-01-07T21:19:26.371Z,7.07
2023-01-07T21:21:53.164Z,6.82
2023-01-07T21:24:20.135Z,6.50
2023-01-07T21:26:47.637Z,6.55
2023-01-07T21:29:16.129Z,6.68
2023-01-07T21:31:45.214Z,7.20
2023-01-07T21:34:12.635Z,7.18
2023-01-07T21:36:40.362Z,7.47
2023-01-07T21:39:08.708Z,6.90
2023-01-07T21:41:35.674Z,6.65
2023-01-07T21:44:02.557Z,6.88
2023-01-07T21:46:29.442Z,6.97
2023-01-07T21:48:56.319Z,6.88
2023-01-07T21:51:26.351Z,6.70
2023-01-07T21:53:56.009Z,6.43
2023-01-07T21:56:25.150Z,6.45
2023-01-07T21:58:52.374Z,5.93
2023-01-07T22:01:20.091Z,6.22
2023-01-07T22:03:48.881Z,6.07
2023-01-07T22:06:24.699Z,6.03
2023-01-07T22:09:00.785Z,6.05
2023-01-07T22:11:28.361Z,5.83
2023-01-07T22:13:57.930Z,5.25
2023-01-07T22:16:27.082Z,5.68
2023-01-07T22:18:54.046Z,5.40
2023-01-07T22:21:21.353Z,6.28
2023-01-07T22:23:48.429Z,5.40
2023-01-07T22:26:18.739Z,5.78
2023-01-07T22:28:54.858Z,5.65
2023-01-07T22:31:28.833Z,5.93
2023-01-07T22:33:56.084Z,6.45
2023-01-07T22:36:34.511Z,6.72
2023-01-07T22:39:10.284Z,6.10
2023-01-07T22:41:37.734Z,6.18
2023-01-07T22:44:09.238Z,6.90
2023-01-07T22:46:38.161Z,5.65
2023-01-07T22:49:06.469Z,5.97
2023-01-07T22:51:39.202Z,6.32
2023-01-07T22:54:07.028Z,6.55
2023-01-07T22:56:34.636Z,7.25
2023-01-07T22:59:01.641Z,7.28
2023-01-07T23:01:28.752Z,6.50
2023-01-07T23:03:55.728Z,6.80
2023-01-07T23:06:22.591Z,6.90
2023-01-07T23:08:49.897Z,6.45
2023-01-07T23:11:36.660Z,5.35
2023-01-07T23:14:03.693Z,6.15
2023-01-07T23:16:30.583Z,6.85
2023-01-07T23:18:57.574Z,5.57
2023-01-07T23:21:24.560Z,5.43
2023-01-07T23:23:51.489Z,5.82
2023-01-07T23:26:18.363Z,5.57
2023-01-07T23:28:45.270Z,5.50
2023-01-07T23:31:12.104Z,5.00
2023-01-07T23:33:38.994Z,4.60
2023-01-07T23:36:08.473Z,4.45
2023-01-07T23:38:36.315Z,4.40
2023-01-07T23:41:06.578Z,4.20
2023-01-07T23:43:34.369Z,3.53
2023-01-07T23:46:02.919Z,3.95
2023-01-07T23:48:31.916Z,3.50
2023-01-07T23:51:14.667Z,3.53
2023-01-07T23:53:42.321Z,3.65
2023-01-07T23:56:09.416Z,3.53
2023-01-07T23:58:36.974Z,3.72
